createdAt,value
2023-04-23T00:02:34.190Z,9.13
2023-04-23T00:05:38.628Z,13.05
2023-04-23T00:08:41.940Z,10.77
2023-04-23T00:11:44.857Z,11.70
2023-04-23T00:14:47.486Z,9.70
2023-04-23T00:17:49.949Z,12.15
2023-04-23T00:20:54.653Z,9.23
2023-04-23T00:23:57.007Z,9.20
2023-04-23T00:27:00.042Z,13.30
2023-04-23T00:30:04.339Z,9.85
2023-04-23T00:33:06.671Z,11.60
2023-04-23T00:36:09.097Z,8.23
2023-04-23T00:39:11.794Z,9.93
2023-04-23T00:42:14.285Z,11.43
2023-04-23T00:45:18.326Z,13.77
2023-04-23T00:48:21.462Z,10.82
2023-04-23T00:51:24.672Z,13.23
2023-04-23T00:54:27.828Z,9.23
2023-04-23T00:57:30.596Z,9.47
2023-04-23T01:00:35.781Z,11.55
2023-04-23T01:03:39.582Z,10.43
2023-04-23T01:06:42.929Z,13.07
2023-04-23T01:09:46.678Z,9.97
2023-04-23T01:12:49.798Z,9.40
2023-04-23T01:15:52.509Z,13.30
2023-04-23T01:18:56.973Z,13.07
2023-04-23T01:22:01.344Z,9.70
2023-04-23T01:25:04.527Z,10.80
2023-04-23T01:28:07.064Z,10.13
2023-04-23T01:31:09.800Z,14.02
2023-04-23T01:34:13.176Z,10.95
2023-04-23T01:37:16.181Z,11.75
2023-04-23T01:40:19.935Z,8.37
2023-04-23T01:43:23.607Z,12.00
2023-04-23T01:46:26.291Z,10.35
2023-04-23T01:49:28.652Z,9.52
2023-04-23T01:52:31.138Z,9.38
2023-04-23T01:55:34.834Z,10.23
2023-04-23T01:58:37.136Z,12.60
2023-04-23T02:01:44.477Z,11.90
2023-04-23T02:04:48.813Z,10.90
2023-04-23T02:07:51.940Z,9.70
2023-04-23T02:10:54.292Z,8.83
2023-04-23T02:13:56.640Z,13.17
2023-04-23T02:16:58.978Z,12.10
2023-04-23T02:20:02.396Z,11.98
2023-04-23T02:23:04.892Z,13.57
2023-04-23T02:26:07.950Z,12.50
2023-04-23T02:29:10.637Z,12.53
2023-04-23T02:32:12.952Z,10.52
2023-04-23T02:35:15.747Z,11.85
2023-04-23T02:38:18.057Z,12.85
2023-04-23T02:41:20.375Z,10.93
2023-04-23T02:44:22.744Z,11.60
2023-04-23T02:47:25.030Z,9.73
2023-04-23T02:50:27.485Z,10.02
2023-04-23T02:53:29.853Z,10.60
2023-04-23T02:56:32.257Z,15.17
2023-04-23T02:59:34.637Z,11.13
2023-04-23T03:02:37.339Z,11.40
2023-04-23T03:05:39.882Z,10.48
2023-04-23T03:08:42.262Z,12.13
2023-04-23T03:11:44.619Z,11.27
2023-04-23T03:14:48.975Z,11.60
2023-04-23T03:17:53.972Z,13.00
2023-04-23T03:20:56.686Z,10.23
2023-04-23T03:23:59.199Z,10.38
2023-04-23T03:27:01.498Z,9.67
2023-04-23T03:30:04.289Z,9.67
2023-04-23T03:33:07.516Z,16.00
2023-04-23T03:36:09.918Z,10.70
2023-04-23T03:39:13.110Z,11.07
2023-04-23T03:42:24.797Z,10.50
2023-04-23T03:45:31.083Z,10.90
2023-04-23T03:48:33.703Z,10.07
2023-04-23T03:51:39.790Z,12.52
2023-04-23T03:54:44.054Z,9.35
2023-04-23T03:57:49.667Z,9.77
2023-04-23T04:00:58.402Z,9.80
2023-04-23T04:04:01.099Z,10.02
2023-04-23T04:07:03.646Z,11.32
2023-04-23T04:10:06.698Z,8.52
2023-04-23T04:13:08.972Z,11.13
2023-04-23T04:16:11.366Z,8.97
2023-04-23T04:19:13.768Z,9.82
2023-04-23T04:22:16.312Z,11.65
2023-04-23T04:25:18.936Z,10.73
2023-04-23T04:28:21.296Z,9.27
2023-04-23T04:31:23.650Z,13.23
2023-04-23T04:34:27.861Z,9.95
2023-04-23T04:37:30.598Z,12.00
2023-04-23T04:40:34.524Z,11.93
2023-04-23T04:43:37.747Z,12.03
2023-04-23T04:46:40.815Z,11.57
2023-04-23T04:49:43.201Z,12.13
2023-04-23T04:52:45.699Z,15.25
2023-04-23T04:55:48.024Z,14.10
2023-04-23T04:58:50.394Z,15.47
2023-04-23T05:01:52.860Z,18.43
2023-04-23T05:04:55.207Z,17.77
2023-04-23T05:07:59.443Z,20.30
2023-04-23T05:11:02.326Z,19.65
2023-04-23T05:14:04.726Z,17.00
2023-04-23T05:17:07.119Z,14.50
2023-04-23T05:20:13.935Z,14.48
2023-04-23T05:23:16.261Z,15.98
2023-04-23T05:26:18.656Z,13.48
2023-04-23T05:29:21.032Z,14.07
2023-04-23T05:32:23.704Z,13.33
2023-04-23T05:35:25.979Z,10.05
2023-04-23T05:38:28.327Z,14.80
2023-04-23T05:41:30.714Z,10.07
2023-04-23T05:44:33.011Z,15.73
2023-04-23T05:47:35.318Z,10.83
2023-04-23T05:50:37.724Z,12.07
2023-04-23T05:53:40.045Z,9.00
2023-04-23T05:56:42.265Z,12.93
2023-04-23T05:59:44.555Z,9.77
2023-04-23T06:02:48.044Z,10.17
2023-04-23T06:05:50.736Z,7.22
2023-04-23T06:08:53.070Z,12.70
2023-04-23T06:11:55.591Z,13.40
2023-04-23T06:14:58.092Z,10.23
2023-04-23T06:18:00.959Z,11.70
2023-04-23T06:21:04.472Z,11.32
2023-04-23T06:24:08.204Z,11.02
2023-04-23T06:27:10.877Z,8.13
2023-04-23T06:30:18.180Z,9.93
2023-04-23T06:33:20.894Z,8.87
2023-04-23T06:36:23.193Z,8.93
2023-04-23T06:39:25.576Z,6.93
2023-04-23T06:42:27.900Z,8.18
2023-04-23T06:45:53.347Z,9.37
2023-04-23T06:48:55.782Z,15.50
2023-04-23T06:51:58.193Z,10.98
2023-04-23T06:55:00.503Z,7.43
2023-04-23T06:58:03.577Z,8.60
2023-04-23T07:01:07.622Z,9.50
2023-04-23T07:04:11.228Z,10.90
2023-04-23T07:07:13.591Z,9.68
2023-04-23T07:10:17.581Z,8.52
2023-04-23T07:13:20.492Z,10.85
2023-04-23T07:16:23.940Z,5.87
2023-04-23T07:19:27.493Z,9.00
2023-04-23T07:22:30.516Z,5.55
2023-04-23T07:25:32.891Z,6.07
2023-04-23T07:28:35.378Z,6.25
2023-04-23T07:31:39.503Z,10.07
2023-04-23T07:34:42.078Z,6.57
2023-04-23T07:37:44.933Z,5.93
2023-04-23T07:40:47.501Z,6.25
2023-04-23T07:43:49.918Z,6.82
2023-04-23T07:46:52.637Z,5.60
2023-04-23T07:49:54.972Z,5.20
2023-04-23T07:52:57.327Z,4.63
2023-04-23T07:56:00.620Z,7.00
2023-04-23T07:59:05.433Z,6.60
2023-04-23T08:02:07.864Z,7.13
2023-04-23T08:05:10.296Z,7.07
2023-04-23T08:08:13.155Z,6.97
2023-04-23T08:11:15.685Z,7.03
2023-04-23T08:14:18.766Z,5.03
2023-04-23T08:17:21.149Z,5.33
2023-04-23T08:20:24.113Z,12.53
2023-04-23T08:23:26.418Z,6.57
2023-04-23T08:26:28.817Z,4.68
2023-04-23T08:29:31.163Z,5.55
2023-04-23T08:32:33.831Z,6.60
2023-04-23T08:35:37.088Z,4.53
2023-04-23T08:38:39.380Z,6.30
2023-04-23T08:41:43.300Z,5.85
2023-04-23T08:44:48.512Z,4.15
2023-04-23T08:47:50.964Z,6.60
2023-04-23T08:50:53.273Z,5.33
2023-04-23T08:53:58.624Z,7.35
2023-04-23T08:57:02.077Z,5.65
2023-04-23T09:00:06.624Z,4.93
2023-04-23T09:03:09.242Z,6.33
2023-04-23T09:06:12.187Z,6.00
2023-04-23T09:09:16.245Z,6.95
2023-04-23T09:12:18.616Z,5.22
2023-04-23T09:15:21.100Z,5.90
2023-04-23T09:18:23.716Z,6.83
2023-04-23T09:21:26.452Z,5.77
2023-04-23T09:24:28.728Z,6.18
2023-04-23T09:27:31.292Z,4.82
2023-04-23T09:30:39.491Z,5.22
2023-04-23T09:33:41.847Z,8.63
2023-04-23T09:36:45.408Z,6.10
2023-04-23T09:39:47.800Z,4.97
2023-04-23T09:42:55.233Z,5.60
2023-04-23T09:45:57.726Z,4.88
2023-04-23T09:49:02.907Z,6.50
2023-04-23T09:52:07.054Z,9.00
2023-04-23T09:55:11.120Z,5.80
2023-04-23T09:58:15.744Z,6.43
2023-04-23T10:01:18.696Z,8.52
2023-04-23T10:04:25.637Z,4.20
2023-04-23T10:07:29.455Z,6.07
2023-04-23T10:10:31.803Z,8.82
2023-04-23T10:13:36.413Z,5.47
2023-04-23T10:16:48.625Z,6.20
2023-04-23T10:19:52.426Z,3.70
2023-04-23T10:22:56.571Z,6.77
2023-04-23T10:26:01.051Z,6.53
2023-04-23T10:29:05.027Z,5.00
2023-04-23T10:32:07.680Z,7.63
2023-04-23T10:35:11.110Z,5.47
2023-04-23T10:38:14.099Z,5.73
2023-04-23T10:41:20.573Z,5.68
2023-04-23T10:44:45.097Z,4.97
2023-04-23T10:47:46.811Z,3.72
2023-04-23T10:51:09.639Z,3.70
2023-04-23T10:54:20.524Z,5.17
2023-04-23T10:57:22.926Z,6.07
2023-04-23T11:00:26.524Z,4.32
2023-04-23T11:03:44.376Z,3.25
2023-04-23T11:06:48.084Z,3.80
2023-04-23T11:09:50.437Z,3.77
2023-04-23T11:12:53.043Z,4.28
2023-04-23T11:16:35.743Z,5.93
2023-04-23T11:19:38.997Z,4.65
2023-04-23T11:22:46.232Z,4.27
2023-04-23T11:25:48.595Z,5.17
2023-04-23T11:28:52.105Z,4.63
2023-04-23T11:35:05.069Z,6.97
2023-04-23T11:38:12.436Z,7.23
2023-04-23T11:41:15.987Z,5.87
2023-04-23T11:44:20.537Z,3.45
2023-04-23T11:47:26.298Z,5.75
2023-04-23T11:50:30.706Z,3.25
2023-04-23T11:53:33.261Z,3.33
2023-04-23T11:56:35.712Z,3.23
2023-04-23T11:59:38.113Z,5.80
2023-04-23T12:02:52.139Z,7.95
2023-04-23T12:05:56.233Z,4.85
2023-04-23T12:08:58.851Z,6.03
2023-04-23T12:12:03.556Z,6.53
2023-04-23T12:15:07.783Z,3.80
2023-04-23T12:18:11.116Z,3.78
2023-04-23T12:21:14.097Z,5.38
2023-04-23T12:24:18.439Z,4.87
2023-04-23T12:27:22.419Z,5.13
2023-04-23T12:30:28.928Z,5.78
2023-04-23T12:33:31.533Z,3.88
2023-04-23T12:36:37.062Z,5.53
2023-04-23T12:39:39.671Z,3.80
2023-04-23T12:42:42.331Z,10.10
2023-04-23T12:45:45.819Z,4.90
2023-04-23T12:48:48.151Z,5.82
2023-04-23T12:51:50.777Z,7.80
2023-04-23T12:54:56.381Z,4.17
2023-04-23T12:57:59.955Z,3.50
2023-04-23T13:01:02.334Z,5.32
2023-04-23T13:04:04.698Z,4.90
2023-04-23T13:07:12.222Z,6.03
2023-04-23T13:10:17.131Z,3.33
2023-04-23T13:13:19.475Z,4.40
2023-04-23T13:16:21.874Z,5.68
2023-04-23T13:19:24.800Z,5.32
2023-04-23T13:22:29.237Z,6.72
2023-04-23T13:25:34.480Z,6.60
2023-04-23T13:28:36.884Z,5.30
2023-04-23T13:31:39.837Z,6.15
2023-04-23T13:34:42.506Z,4.05
2023-04-23T13:37:45.123Z,5.43
2023-04-23T13:40:47.365Z,5.70
2023-04-23T13:43:49.779Z,8.10
2023-04-23T13:46:52.188Z,4.35
2023-04-23T13:49:54.505Z,4.18
2023-04-23T13:52:56.827Z,4.03
2023-04-23T13:55:59.707Z,4.00
2023-04-23T13:59:18.784Z,3.80
2023-04-23T14:02:24.108Z,3.65
2023-04-23T14:05:26.549Z,4.88
2023-04-23T14:08:28.886Z,4.32
2023-04-23T14:11:31.189Z,6.97
2023-04-23T14:14:33.553Z,7.90
2023-04-23T14:17:37.300Z,7.63
2023-04-23T14:20:39.709Z,5.78
2023-04-23T14:23:50.719Z,4.88
2023-04-23T14:26:53.200Z,4.60
2023-04-23T14:29:55.597Z,3.40
2023-04-23T14:32:57.975Z,5.45
2023-04-23T14:36:00.332Z,3.97
2023-04-23T14:39:05.286Z,4.97
2023-04-23T14:42:07.658Z,3.97
2023-04-23T14:45:10.254Z,4.30
2023-04-23T14:48:12.514Z,3.83
2023-04-23T14:51:14.887Z,3.47
2023-04-23T14:54:17.707Z,4.25
2023-04-23T14:57:20.018Z,5.67
2023-04-23T15:00:22.487Z,3.53
2023-04-23T15:03:26.831Z,3.88
2023-04-23T15:06:29.308Z,6.47
2023-04-23T15:09:31.600Z,3.03
2023-04-23T15:12:43.420Z,3.57
2023-04-23T15:15:56.770Z,4.17
2023-04-23T15:19:03.467Z,5.38
2023-04-23T15:22:05.844Z,4.03
2023-04-23T15:25:08.196Z,4.30
2023-04-23T15:28:10.648Z,5.53
2023-04-23T15:31:13.058Z,5.40
2023-04-23T15:34:15.465Z,4.68
2023-04-23T15:37:20.055Z,4.40
2023-04-23T15:40:22.615Z,4.93
2023-04-23T15:43:24.957Z,4.97
2023-04-23T15:46:27.252Z,8.50
2023-04-23T15:49:29.820Z,11.95
2023-04-23T15:52:32.269Z,3.17
2023-04-23T15:55:34.683Z,4.60
2023-04-23T15:58:37.056Z,3.10
2023-04-23T16:01:39.638Z,2.93
2023-04-23T16:04:42.336Z,3.42
2023-04-23T16:07:44.853Z,6.25
2023-04-23T16:10:47.167Z,3.55
2023-04-23T16:13:49.625Z,6.50
2023-04-23T16:16:51.950Z,4.23
2023-04-23T16:19:54.403Z,3.20
2023-04-23T16:22:56.920Z,4.78
2023-04-23T16:26:01.543Z,4.88
2023-04-23T16:29:16.580Z,3.90
2023-04-23T16:32:23.526Z,2.80
2023-04-23T16:35:25.902Z,4.05
2023-04-23T16:38:28.191Z,5.00
2023-04-23T16:41:31.558Z,6.88
2023-04-23T16:44:33.879Z,6.07
2023-04-23T16:47:36.339Z,4.10
2023-04-23T16:50:39.029Z,5.43
2023-04-23T16:53:41.372Z,6.85
2023-04-23T16:56:45.496Z,4.72
2023-04-23T16:59:47.833Z,3.63
2023-04-23T17:02:50.449Z,4.77
2023-04-23T17:06:19.537Z,3.67
2023-04-23T17:09:22.063Z,6.07
2023-04-23T17:12:24.665Z,7.03
2023-04-23T17:15:27.209Z,6.20
2023-04-23T17:18:29.891Z,6.70
2023-04-23T17:21:32.514Z,4.75
2023-04-23T17:24:36.359Z,6.35
2023-04-23T17:27:39.406Z,5.32
2023-04-23T17:30:41.851Z,4.97
2023-04-23T17:33:45.594Z,4.13
2023-04-23T17:36:48.616Z,5.13
2023-04-23T17:39:51.130Z,5.10
2023-04-23T17:42:53.581Z,8.52
2023-04-23T17:45:55.925Z,8.03
2023-04-23T17:48:58.438Z,4.03
2023-04-23T17:52:00.985Z,5.45
2023-04-23T17:55:03.759Z,6.53
2023-04-23T17:58:06.708Z,5.15
2023-04-23T18:01:10.108Z,9.00
2023-04-23T18:04:13.472Z,4.37
2023-04-23T18:07:17.575Z,6.30
2023-04-23T18:10:20.037Z,6.78
2023-04-23T18:13:22.566Z,10.82
2023-04-23T18:16:25.297Z,14.23
2023-04-23T18:19:27.893Z,6.93
2023-04-23T18:22:30.175Z,5.55
2023-04-23T18:25:32.842Z,8.27
2023-04-23T18:28:37.154Z,8.75
2023-04-23T18:31:39.447Z,4.33
2023-04-23T18:34:41.915Z,5.97
2023-04-23T18:37:49.381Z,5.20
2023-04-23T18:40:51.934Z,5.57
2023-04-23T18:43:54.358Z,7.80
2023-04-23T18:46:56.766Z,6.63
2023-04-23T18:50:09.275Z,6.80
2023-04-23T18:53:11.876Z,6.53
2023-04-23T18:56:15.027Z,5.82
2023-04-23T18:59:18.886Z,10.80
2023-04-23T19:02:34.543Z,8.00
2023-04-23T19:05:38.613Z,8.13
2023-04-23T19:08:42.418Z,6.05
2023-04-23T19:11:45.378Z,8.65
2023-04-23T19:14:47.650Z,9.98
2023-04-23T19:17:50.141Z,14.37
2023-04-23T19:20:53.858Z,6.13
2023-04-23T19:23:56.810Z,5.78
2023-04-23T19:26:59.190Z,6.97
2023-04-23T19:30:01.800Z,7.60
2023-04-23T19:33:04.726Z,10.70
2023-04-23T19:36:07.165Z,11.90
2023-04-23T19:39:10.571Z,10.25
2023-04-23T19:42:14.871Z,7.63
2023-04-23T19:45:18.468Z,8.48
2023-04-23T19:48:23.913Z,8.43
2023-04-23T19:51:29.168Z,6.33
2023-04-23T19:54:31.634Z,10.30
2023-04-23T19:57:33.905Z,8.65
2023-04-23T20:00:41.642Z,7.57
2023-04-23T20:03:52.030Z,7.90
2023-04-23T20:06:54.376Z,7.57
2023-04-23T20:09:56.682Z,5.18
2023-04-23T20:12:59.880Z,7.10
2023-04-23T20:16:03.232Z,15.25
2023-04-23T20:19:11.447Z,5.07
2023-04-23T20:22:13.737Z,8.43
2023-04-23T20:25:16.083Z,5.93
2023-04-23T20:28:18.465Z,5.97
2023-04-23T20:31:21.377Z,6.03
2023-04-23T20:34:23.734Z,11.30
2023-04-23T20:37:26.855Z,8.97
2023-04-23T20:40:34.509Z,7.10
2023-04-23T20:43:38.822Z,10.73
2023-04-23T20:46:41.258Z,8.05
2023-04-23T20:49:43.811Z,7.37
2023-04-23T20:52:46.558Z,9.07
2023-04-23T20:55:48.932Z,10.00
2023-04-23T20:58:51.268Z,7.65
2023-04-23T21:01:53.655Z,6.47
2023-04-23T21:04:56.114Z,6.00
2023-04-23T21:07:58.433Z,6.97
2023-04-23T21:11:00.814Z,6.32
2023-04-23T21:14:03.130Z,5.90
2023-04-23T21:17:05.768Z,5.65
2023-04-23T21:20:09.661Z,7.03
2023-04-23T21:23:12.347Z,5.23
2023-04-23T21:26:14.624Z,9.32
2023-04-23T21:29:16.997Z,5.70
2023-04-23T21:32:19.642Z,9.45
2023-04-23T21:35:21.987Z,8.97
2023-04-23T21:38:24.251Z,9.57
2023-04-23T21:41:26.595Z,11.75
2023-04-23T21:44:31.176Z,7.97
2023-04-23T21:47:33.516Z,7.22
2023-04-23T21:50:36.250Z,6.83
2023-04-23T21:53:38.583Z,7.97
2023-04-23T21:56:41.639Z,12.50
2023-04-23T21:59:44.101Z,7.85
2023-04-23T22:02:47.257Z,6.03
2023-04-23T22:05:52.286Z,7.37
2023-04-23T22:08:56.046Z,8.03
2023-04-23T22:12:02.393Z,7.22
2023-04-23T22:15:06.774Z,8.40
2023-04-23T22:18:09.090Z,8.43
2023-04-23T22:21:11.505Z,6.80
2023-04-23T22:24:13.807Z,7.87
2023-04-23T22:27:16.218Z,13.50
2023-04-23T22:30:18.553Z,7.22
2023-04-23T22:33:21.184Z,6.15
2023-04-23T22:36:23.485Z,9.97
2023-04-23T22:39:25.902Z,5.50
2023-04-23T22:42:28.237Z,10.70
2023-04-23T22:45:30.616Z,6.70
2023-04-23T22:48:32.948Z,7.93
2023-04-23T22:51:35.889Z,5.00
2023-04-23T22:54:38.190Z,6.57
2023-04-23T22:57:40.559Z,6.25
2023-04-23T23:00:42.923Z,6.75
2023-04-23T23:03:45.292Z,6.88
2023-04-23T23:06:47.774Z,9.30
2023-04-23T23:09:50.271Z,5.63
2023-04-23T23:12:53.026Z,6.07
2023-04-23T23:15:55.705Z,6.35
2023-04-23T23:18:58.495Z,7.80
2023-04-23T23:22:00.832Z,5.87
2023-04-23T23:25:03.879Z,5.00
2023-04-23T23:28:06.259Z,13.00
2023-04-23T23:31:09.571Z,6.75
2023-04-23T23:34:12.393Z,11.02
2023-04-23T23:37:14.712Z,9.53
2023-04-23T23:40:17.057Z,6.30
2023-04-23T23:43:19.287Z,8.00
2023-04-23T23:46:22.296Z,9.18
2023-04-23T23:49:24.652Z,7.53
2023-04-23T23:52:26.997Z,8.07
2023-04-23T23:55:29.290Z,10.13
2023-04-23T23:58:31.578Z,8.40
